Terminal Aerodrome Forecast
Issued by NWS

Home | Current Version | Previous Version | Text Only | Print | Product List | Glossary On
Versions: 1 2 3 4 5 6 7 8 9 10 11 12 13 14
000
FTUS44 KLZK 251909 AAA
TAFPBF
TAF AMD
KPBF 251909Z 2519/2618 18008G16KT P6SM VCTS SCT025 BKN050CB
     FM260100 17006KT P6SM SCT050 BKN250
     FM261100 18006KT P6SM BKN025 OVC050=

USA.gov is the U.S. government's official web portal to all federal, state and local government web resources and services.